Time;durP1;ratioP1;P1;durP2;ratioP2;P2;SDS_P1;SDS_P2;PMS_P1;PMS_P2;Temp;Humidity;BMP_temperature;BMP_pressure;BME280_temperature;BME280_humidity;BME280_pressure;Samples;Min_cycle;Max_cycle;Signal;HPM_P1;HPM_P2
2023/03/09 03:50:32;;;;;;;14.20;7.60;;;;;;;7.44;86.40;98334.08;79500;1295;3011983;-60
2023/03/09 03:53:02;;;;;;;19.00;9.70;;;;;;;7.74;85.14;98334.37;78163;1297;3052888;-60
2023/03/09 03:55:31;;;;;;;17.60;9.30;;;;;;;7.63;84.73;98333.70;79370;1295;3013710;-58
2023/03/09 03:57:57;;;;;;;20.10;9.80;;;;;;;7.55;85.06;98332.66;79292;1292;3011944;-60
2023/03/09 04:00:26;;;;;;;15.20;9.40;;;;;;;7.11;87.15;98326.66;78202;1298;3050179;-59
2023/03/09 04:02:56;;;;;;;18.10;10.10;;;;;;;7.01;87.63;98335.69;79412;1297;3011699;-58
2023/03/09 04:05:46;;;;;;;19.20;10.10;;;;;;;6.64;89.49;98333.65;78177;1297;3052435;-60
2023/03/09 04:08:16;;;;;;;14.10;6.90;;;;;;;6.55;90.01;98334.36;79598;1295;3011765;-60
2023/03/09 04:10:46;;;;;;;14.70;6.90;;;;;;;6.70;90.79;98337.77;78226;1297;3053661;-59
2023/03/09 04:13:13;;;;;;;16.30;8.70;;;;;;;7.08;89.06;98336.77;79384;1294;3013160;-60
2023/03/09 04:15:44;;;;;;;17.90;9.40;;;;;;;7.13;88.14;98338.89;78905;1294;3013071;-60
2023/03/09 04:18:13;;;;;;;16.60;8.90;;;;;;;6.91;88.75;98329.13;79748;1294;3013110;-59
2023/03/09 04:20:40;;;;;;;16.80;10.50;;;;;;;6.90;89.16;98328.38;79543;1295;3013259;-59
2023/03/09 04:23:09;;;;;;;18.00;9.90;;;;;;;6.62;90.12;98332.89;78203;1292;3049603;-60
2023/03/09 04:25:38;;;;;;;17.30;9.50;;;;;;;6.55;90.88;98328.80;79263;1296;3013249;-58
2023/03/09 04:28:08;;;;;;;11.90;5.60;;;;;;;6.35;91.66;98320.27;78853;1297;3013090;-60
2023/03/09 04:30:38;;;;;;;13.60;7.00;;;;;;;6.91;90.60;98319.79;79173;1294;3012303;-59
2023/03/09 04:33:11;;;;;;;16.10;6.90;;;;;;;7.36;88.09;98309.40;77899;1298;3052200;-60
2023/03/09 04:35:39;;;;;;;15.50;8.00;;;;;;;7.31;87.50;98308.48;79464;1294;3013314;-60
2023/03/09 04:38:12;;;;;;;16.30;9.40;;;;;;;7.28;87.69;98305.17;77873;1294;3054776;-59
2023/03/09 04:40:43;;;;;;;19.60;11.10;;;;;;;6.96;88.66;98302.52;79324;1294;3011906;-60
2023/03/09 04:43:11;;;;;;;23.10;10.70;;;;;;;6.69;90.30;98306.70;78033;1300;3026315;-60
2023/03/09 04:45:37;;;;;;;12.30;7.50;;;;;;;6.54;91.68;98305.73;79096;1298;3013728;-59
2023/03/09 04:48:09;;;;;;;16.70;8.40;;;;;;;6.76;91.60;98300.87;78663;1295;3011560;-60
2023/03/09 04:50:37;;;;;;;18.10;9.60;;;;;;;7.13;90.04;98298.52;79471;1293;3013949;-58
2023/03/09 04:53:05;;;;;;;21.10;10.00;;;;;;;7.18;88.34;98297.81;79393;1295;3011533;-59
2023/03/09 04:55:36;;;;;;;17.20;10.30;;;;;;;6.99;89.53;98292.77;78204;1295;3053747;-58
2023/03/09 04:58:04;;;;;;;17.70;11.10;;;;;;;6.98;89.54;98292.36;79596;1295;3011626;-60
2023/03/09 05:00:34;;;;;;;20.20;10.60;;;;;;;6.70;90.78;98297.08;79152;1294;3013647;-62
2023/03/09 05:03:03;;;;;;;18.50;8.20;;;;;;;6.68;91.12;98297.02;79262;1300;3013431;-61
2023/03/09 05:05:30;;;;;;;16.40;7.60;;;;;;;7.03;90.63;98284.55;79464;1295;3013842;-62
2023/03/09 05:07:59;;;;;;;21.10;9.90;;;;;;;7.27;88.52;98283.45;78241;1297;3057410;-60
2023/03/09 05:10:27;;;;;;;18.90;9.90;;;;;;;7.17;88.72;98289.00;79523;1295;3014987;-60
2023/03/09 05:12:59;;;;;;;21.60;12.10;;;;;;;6.98;89.16;98297.59;78320;1300;3051099;-60
2023/03/09 05:16:19;;;;;;;20.30;10.90;;;;;;;6.89;90.32;98303.34;79372;1297;3011696;-61
2023/03/09 05:19:09;;;;;;;21.70;12.20;;;;;;;6.84;90.38;98309.21;78386;1295;3052687;-60
2023/03/09 05:21:39;;;;;;;21.00;8.60;;;;;;;6.57;91.83;98312.66;79541;1299;3011821;-60
2023/03/09 05:24:11;;;;;;;18.30;8.70;;;;;;;6.93;91.90;98304.48;78139;1298;3052131;-61
2023/03/09 05:26:39;;;;;;;16.20;9.90;;;;;;;7.34;89.23;98294.01;79386;1294;3013936;-62
2023/03/09 05:29:06;;;;;;;23.50;12.30;;;;;;;7.26;89.14;98292.83;79284;1294;3011621;-62
2023/03/09 05:31:36;;;;;;;23.20;11.30;;;;;;;7.18;89.22;98289.61;78048;1299;3049777;-60
2023/03/09 05:34:05;;;;;;;21.90;12.10;;;;;;;7.05;89.51;98288.58;79352;1294;3013284;-63
2023/03/09 05:36:35;;;;;;;20.20;11.40;;;;;;;6.79;90.95;98283.42;78383;1294;3027324;-60
2023/03/09 05:39:08;;;;;;;13.30;7.00;;;;;;;6.58;91.43;98291.02;79246;1295;3011887;-62
2023/03/09 05:41:38;;;;;;;14.50;7.90;;;;;;;7.01;91.12;98287.44;78025;1297;3050980;-61
2023/03/09 05:44:13;;;;;;;19.30;11.00;;;;;;;7.19;88.82;98283.50;77983;1297;3057160;-61
2023/03/09 05:46:40;;;;;;;19.00;10.70;;;;;;;6.98;89.49;98279.95;79238;1295;3013464;-60
2023/03/09 05:49:06;;;;;;;19.10;12.30;;;;;;;7.04;89.29;98276.98;79217;1295;3011809;-61
2023/03/09 05:51:34;;;;;;;19.80;12.30;;;;;;;6.76;90.68;98285.21;78015;1297;3029069;-61
2023/03/09 05:54:03;;;;;;;23.90;13.40;;;;;;;6.59;91.79;98288.20;79482;1298;3013314;-61
2023/03/09 05:56:34;;;;;;;19.10;9.60;;;;;;;6.50;92.96;98293.78;78162;1294;3069776;-62
2023/03/09 05:59:04;;;;;;;16.80;9.20;;;;;;;6.75;92.38;98290.66;79427;1294;3011406;-60
2023/03/09 06:03:42;;;;;;;21.80;13.00;;;;;;;6.98;90.10;98297.20;79935;1305;3013417;-59
2023/03/09 06:06:09;;;;;;;23.60;12.60;;;;;;;6.68;91.97;98296.86;78978;1305;3013617;-62
2023/03/09 06:08:41;;;;;;;25.60;14.50;;;;;;;6.82;91.47;98294.53;77946;1304;3053675;-62
2023/03/09 06:11:17;;;;;;;27.30;14.70;;;;;;;6.72;92.15;98298.00;78593;1303;3011925;-60
2023/03/09 06:13:44;;;;;;;18.10;8.80;;;;;;;6.53;92.93;98298.10;79270;1304;3013987;-61
2023/03/09 06:16:13;;;;;;;23.10;10.40;;;;;;;7.06;92.14;98296.86;77565;1304;3013698;-60
2023/03/09 06:18:42;;;;;;;23.00;12.20;;;;;;;7.34;89.79;98302.87;77979;1301;3058882;-62
2023/03/09 06:21:09;;;;;;;28.00;13.60;;;;;;;7.34;89.17;98302.54;79232;1300;3013307;-62
2023/03/09 06:23:35;;;;;;;22.70;13.70;;;;;;;7.17;89.92;98302.44;79124;1300;3011730;-60
2023/03/09 06:26:06;;;;;;;28.70;15.60;;;;;;;7.05;90.41;98311.92;77930;1304;3053919;-62
2023/03/09 06:28:34;;;;;;;26.40;14.70;;;;;;;6.85;91.24;98315.79;79382;1304;3011566;-62
2023/03/09 06:31:11;;;;;;;16.80;8.50;;;;;;;6.75;92.49;98313.80;77984;1310;3069393;-61
2023/03/09 06:33:41;;;;;;;18.80;9.10;;;;;;;7.48;90.65;98301.73;77962;1301;3051506;-61
2023/03/09 06:36:12;;;;;;;20.10;10.60;;;;;;;7.97;86.87;98304.81;79188;1298;3013256;-62
2023/03/09 06:38:40;;;;;;;26.60;12.50;;;;;;;7.63;86.76;98302.55;77882;1301;3053215;-61
2023/03/09 06:41:08;;;;;;;22.90;12.90;;;;;;;7.43;87.97;98300.17;79278;1304;3013142;-61
2023/03/09 06:43:36;;;;;;;29.30;14.80;;;;;;;7.24;88.68;98307.55;79254;1301;3013083;-61
2023/03/09 06:46:04;;;;;;;30.30;15.00;;;;;;;6.96;89.85;98306.38;78062;1301;3069918;-59
2023/03/09 06:48:34;;;;;;;18.40;10.20;;;;;;;6.76;91.50;98307.29;79246;1301;3011668;-61
2023/03/09 06:51:02;;;;;;;26.80;14.10;;;;;;;7.18;90.90;98312.67;78101;1310;3026173;-61
2023/03/09 06:53:30;;;;;;;26.80;13.80;;;;;;;7.46;88.60;98314.67;79204;1304;3013385;-60
2023/03/09 06:56:03;;;;;;;29.00;15.70;;;;;;;7.36;88.88;98315.81;78017;1301;3050133;-61
2023/03/09 06:58:33;;;;;;;31.30;17.00;;;;;;;7.31;89.00;98324.52;79710;1296;3011906;-61
2023/03/09 07:01:09;;;;;;;28.30;16.70;;;;;;;7.50;88.27;98315.41;78167;1303;3051768;-61
2023/03/09 07:03:36;;;;;;;30.00;17.00;;;;;;;7.19;89.07;98316.92;79190;1298;3012845;-62
2023/03/09 07:06:06;;;;;;;22.00;10.90;;;;;;;7.26;89.51;98310.05;77936;1302;3052193;-61
2023/03/09 07:08:35;;;;;;;26.70;13.30;;;;;;;7.48;88.28;98306.67;79297;1299;3011470;-61
2023/03/09 07:11:04;;;;;;;29.10;14.70;;;;;;;7.66;87.12;98306.20;78933;1298;3011589;-67
2023/03/09 07:13:33;;;;;;;26.80;15.00;;;;;;;7.64;87.07;98310.30;79527;1301;3012817;-66
2023/03/09 07:16:04;;;;;;;35.00;16.20;;;;;;;7.76;86.47;98304.60;78194;1301;3050516;-68
2023/03/09 07:18:31;;;;;;;30.70;15.50;;;;;;;7.72;86.83;98311.89;79478;1298;3013481;-68
2023/03/09 07:21:01;;;;;;;33.60;16.30;;;;;;;7.53;87.48;98309.83;79468;1301;3011605;-66
2023/03/09 07:23:31;;;;;;;31.70;16.00;;;;;;;7.49;88.24;98315.88;78185;1301;3049571;-64
2023/03/09 07:26:00;;;;;;;22.60;11.60;;;;;;;7.27;89.22;98315.55;79180;1299;3013055;-61
2023/03/09 07:28:30;;;;;;;20.90;11.80;;;;;;;7.85;88.07;98317.10;78791;1301;3013028;-67
2023/03/09 07:30:57;;;;;;;25.80;13.30;;;;;;;8.35;84.85;98318.10;79251;1299;3013480;-63
2023/03/09 07:33:28;;;;;;;29.90;15.10;;;;;;;8.45;84.01;98320.17;78638;1301;3011971;-61
2023/03/09 07:35:54;;;;;;;29.10;15.10;;;;;;;8.33;84.07;98320.77;79502;1299;3018963;-63
2023/03/09 07:38:21;;;;;;;32.00;14.70;;;;;;;8.32;84.14;98323.34;79388;1303;3011953;-62
2023/03/09 07:40:50;;;;;;;25.20;14.10;;;;;;;8.20;84.42;98326.09;77976;1301;3026326;-61
2023/03/09 07:43:16;;;;;;;24.10;14.60;;;;;;;8.11;84.22;98324.76;79156;1301;3013145;-62
2023/03/09 07:45:52;;;;;;;16.20;9.50;;;;;;;8.03;84.79;98332.25;77920;1300;3053690;-61
2023/03/09 07:48:18;;;;;;;17.00;10.00;;;;;;;8.61;82.70;98329.67;79375;1301;3013558;-61
2023/03/09 07:50:45;;;;;;;19.90;11.80;;;;;;;8.96;80.36;98331.60;79194;1301;3011644;-65
2023/03/09 07:53:13;;;;;;;33.40;12.70;;;;;;;8.77;80.92;98330.84;77989;1299;3028533;-62
2023/03/09 07:55:40;;;;;;;24.80;14.10;;;;;;;8.94;80.12;98324.61;79218;1300;3013018;-62
2023/03/09 07:58:08;;;;;;;26.90;15.10;;;;;;;8.92;80.59;98315.96;79164;1296;3011558;-61
2023/03/09 08:00:36;;;;;;;25.80;15.10;;;;;;;8.93;80.51;98319.43;77925;1299;3054590;-62
2023/03/09 08:03:03;;;;;;;29.20;16.40;;;;;;;8.74;81.17;98323.38;79326;1304;3012741;-61
2023/03/09 08:05:30;;;;;;;29.60;16.60;;;;;;;8.49;81.83;98324.22;79529;1300;3011400;-63
2023/03/09 08:08:04;;;;;;;17.20;9.90;;;;;;;8.45;82.35;98325.90;78969;1299;3067642;-60
2023/03/09 08:10:32;;;;;;;22.20;11.00;;;;;;;8.94;80.01;98324.58;79365;1304;3013772;-61
2023/03/09 08:13:01;;;;;;;23.70;12.90;;;;;;;9.03;79.02;98311.17;78157;1302;3027217;-61
2023/03/09 08:15:28;;;;;;;26.10;13.30;;;;;;;9.28;78.09;98304.63;79220;1298;3012878;-63
2023/03/09 08:17:55;;;;;;;28.00;15.30;;;;;;;8.99;79.14;98310.23;79092;1303;3011685;-61
2023/03/09 08:20:24;;;;;;;27.80;15.30;;;;;;;8.92;79.74;98308.81;78040;1301;3052266;-63
2023/03/09 08:22:51;;;;;;;30.60;16.20;;;;;;;9.14;78.93;98305.48;79168;1301;3012877;-62
2023/03/09 08:25:18;;;;;;;25.70;14.40;;;;;;;9.31;78.60;98304.94;79207;1301;3012162;-62
2023/03/09 08:27:47;;;;;;;25.00;14.40;;;;;;;9.18;78.03;98302.41;77834;1301;3028741;-62
2023/03/09 08:30:14;;;;;;;24.20;14.10;;;;;;;9.04;78.21;98309.38;79132;1299;3012934;-62
2023/03/09 08:32:42;;;;;;;27.90;14.30;;;;;;;9.19;78.32;98294.82;79398;1302;3011695;-62
2023/03/09 08:35:10;;;;;;;14.00;8.90;;;;;;;9.20;78.69;98296.34;77931;1302;3053630;-61
2023/03/09 08:37:36;;;;;;;20.10;10.10;;;;;;;9.48;77.08;98294.42;79211;1298;3013081;-61
2023/03/09 08:40:04;;;;;;;22.60;11.50;;;;;;;9.99;75.11;98291.14;79134;1298;3011458;-61
2023/03/09 08:42:33;;;;;;;24.40;12.30;;;;;;;10.14;74.19;98288.92;78013;1301;3056599;-61
2023/03/09 08:45:00;;;;;;;22.90;12.60;;;;;;;10.16;73.80;98285.98;79140;1299;3013782;-62
2023/03/09 08:47:27;;;;;;;21.70;12.60;;;;;;;10.05;73.39;98286.13;79127;1298;3011645;-61
2023/03/09 08:49:55;;;;;;;25.10;13.60;;;;;;;9.89;74.48;98282.75;77948;1302;3054056;-62
2023/03/09 08:52:22;;;;;;;27.10;12.90;;;;;;;9.92;74.09;98276.29;79152;1298;3012952;-63
2023/03/09 08:54:49;;;;;;;24.90;13.20;;;;;;;9.87;74.48;98273.11;79137;1311;3011800;-63
2023/03/09 08:57:17;;;;;;;23.30;13.50;;;;;;;9.89;74.76;98273.48;78040;1300;3055804;-64
2023/03/09 08:59:47;;;;;;;21.90;13.50;;;;;;;10.12;74.59;98269.17;79230;1297;3011785;-62
2023/03/09 09:02:15;;;;;;;23.20;13.60;;;;;;;10.09;74.22;98265.50;78019;1298;3026792;-61
2023/03/09 09:04:42;;;;;;;23.60;13.50;;;;;;;10.25;73.93;98257.97;79266;1301;3013110;-63
2023/03/09 09:07:10;;;;;;;22.70;13.20;;;;;;;10.35;72.89;98251.97;79350;1301;3012830;-62
2023/03/09 09:09:40;;;;;;;23.60;13.60;;;;;;;10.34;73.13;98249.40;78028;1301;3070322;-62
2023/03/09 09:12:08;;;;;;;22.70;14.90;;;;;;;10.44;73.79;98242.19;79428;1297;3013475;-62
2023/03/09 09:14:37;;;;;;;17.80;10.50;;;;;;;10.60;73.44;98236.33;79397;1297;3011892;-62
2023/03/09 09:17:08;;;;;;;15.00;8.20;;;;;;;11.19;70.77;98227.16;78052;1301;3053262;-62
2023/03/09 09:19:35;;;;;;;22.10;10.20;;;;;;;11.58;67.23;98230.40;79234;1301;3013370;-63
2023/03/09 09:22:09;;;;;;;19.60;10.40;;;;;;;11.77;67.26;98225.16;78183;1301;3053725;-63
2023/03/09 09:24:37;;;;;;;15.40;9.80;;;;;;;11.97;65.88;98229.42;79260;1301;3014238;-62
2023/03/09 09:27:05;;;;;;;15.00;10.70;;;;;;;12.01;65.98;98221.84;79333;1298;3013533;-63
2023/03/09 09:29:34;;;;;;;18.50;10.20;;;;;;;11.72;66.44;98224.33;78153;1301;3055957;-61
2023/03/09 09:32:00;;;;;;;18.60;10.00;;;;;;;11.69;66.96;98222.98;79466;1300;3012928;-60
2023/03/09 09:34:31;;;;;;;18.80;9.80;;;;;;;11.98;66.33;98216.36;79297;1301;3011595;-61
2023/03/09 09:37:02;;;;;;;16.80;10.10;;;;;;;11.90;65.43;98218.64;78176;1301;3052492;-62
2023/03/09 09:39:34;;;;;;;16.20;9.80;;;;;;;12.04;65.65;98212.46;78079;1301;3052183;-62
2023/03/09 09:42:04;;;;;;;15.70;9.60;;;;;;;11.85;65.07;98219.05;79499;1300;3013462;-63
2023/03/09 09:44:33;;;;;;;18.40;10.10;;;;;;;11.77;65.45;98213.22;79261;1298;3011487;-63
2023/03/09 09:47:03;;;;;;;19.80;11.20;;;;;;;11.76;66.15;98224.20;78046;1297;3050412;-61
2023/03/09 09:49:31;;;;;;;19.80;10.60;;;;;;;11.84;65.49;98213.67;79146;1298;3011797;-63
2023/03/09 09:52:02;;;;;;;21.70;12.10;;;;;;;11.94;64.93;98208.83;77958;1298;3050121;-62
2023/03/09 09:54:47;;;;;;;20.10;10.40;;;;;;;12.00;64.87;98208.80;79224;1301;3014776;-62
2023/03/09 09:57:19;;;;;;;14.40;8.40;;;;;;;12.02;63.80;98215.11;77991;1301;3068847;-63
2023/03/09 10:00:12;;;;;;;17.00;8.70;;;;;;;12.06;61.76;98211.06;79123;1297;3011589;-62
2023/03/09 10:03:06;;;;;;;14.90;8.30;;;;;;;12.22;61.71;98211.67;77991;1300;3058163;-62
2023/03/09 10:06:07;;;;;;;18.20;8.70;;;;;;;12.36;61.85;98206.57;77952;1302;3049109;-62
2023/03/09 10:08:40;;;;;;;14.50;8.10;;;;;;;12.33;61.59;98207.17;77934;1298;3055628;-64
2023/03/09 10:11:30;;;;;;;15.00;8.60;;;;;;;12.42;62.33;98200.97;79214;1304;3011691;-62
2023/03/09 10:14:05;;;;;;;17.00;9.00;;;;;;;12.82;61.77;98188.61;77891;1304;3052562;-63
2023/03/09 10:16:56;;;;;;;16.70;9.40;;;;;;;12.95;61.06;98188.02;78715;1302;3011791;-62
2023/03/09 10:19:29;;;;;;;16.80;8.30;;;;;;;13.03;60.63;98187.09;77909;1301;3053926;-61
2023/03/09 10:21:58;;;;;;;15.50;7.60;;;;;;;12.97;59.44;98187.77;79304;1303;3011561;-63
2023/03/09 10:24:28;;;;;;;13.80;7.30;;;;;;;13.00;59.29;98194.02;77954;1299;3050133;-63
2023/03/09 10:27:08;;;;;;;12.00;6.70;;;;;;;13.24;58.59;98181.31;79348;1298;3011606;-63
2023/03/09 10:30:08;;;;;;;14.30;7.20;;;;;;;13.23;56.76;98186.67;77970;1303;3049481;-62
2023/03/09 10:32:54;;;;;;;10.70;6.60;;;;;;;13.31;56.20;98188.38;78109;1301;3054728;-62
2023/03/09 10:35:36;;;;;;;8.80;4.70;;;;;;;13.34;55.89;98176.02;78034;1302;3050749;-62
2023/03/09 10:38:04;;;;;;;16.10;5.10;;;;;;;13.55;55.57;98170.94;78032;1301;3052543;-61
2023/03/09 10:40:35;;;;;;;10.10;5.20;;;;;;;13.64;54.52;98171.98;79314;1303;3012862;-62
2023/03/09 10:43:04;;;;;;;13.00;4.40;;;;;;;13.77;53.52;98174.28;77971;1301;3052405;-62
2023/03/09 10:45:31;;;;;;;9.90;4.50;;;;;;;13.94;52.41;98162.97;79231;1298;3013621;-61
2023/03/09 10:48:08;;;;;;;13.20;5.00;;;;;;;14.19;51.50;98158.04;79128;1298;3011773;-62
2023/03/09 10:50:40;;;;;;;12.10;4.60;;;;;;;14.26;50.80;98155.94;77947;1298;3051008;-64
2023/03/09 10:53:49;;;;;;;8.40;4.20;;;;;;;14.19;50.07;98157.87;79155;1304;3011504;-62
2023/03/09 10:56:24;;;;;;;8.70;4.10;;;;;;;14.14;50.12;98149.69;77961;1303;3053301;-62
2023/03/09 10:59:08;;;;;;;10.10;4.50;;;;;;;14.25;49.55;98147.04;78732;1297;3013961;-62
2023/03/09 11:01:41;;;;;;;8.70;3.70;;;;;;;14.47;49.57;98140.30;78013;1297;3068993;-62
2023/03/09 11:04:23;;;;;;;9.30;4.40;;;;;;;14.70;48.95;98140.05;79323;1295;3011358;-61
2023/03/09 11:06:52;;;;;;;9.60;4.00;;;;;;;14.88;48.65;98138.87;78093;1301;3056600;-63
2023/03/09 11:09:20;;;;;;;7.10;3.30;;;;;;;14.82;47.82;98136.95;79368;1298;3012942;-62
2023/03/09 11:11:48;;;;;;;12.80;3.90;;;;;;;14.89;47.31;98128.27;79238;1300;3012940;-64
2023/03/09 11:14:22;;;;;;;6.50;3.30;;;;;;;14.85;46.67;98133.79;78419;1298;3052740;-63
2023/03/09 11:16:50;;;;;;;10.00;4.20;;;;;;;14.79;46.95;98118.58;79288;1301;3013018;-63
2023/03/09 11:19:19;;;;;;;6.60;2.70;;;;;;;14.91;46.47;98128.35;78007;1295;3069579;-63
2023/03/09 11:22:01;;;;;;;5.70;2.70;;;;;;;15.17;44.59;98120.83;79277;1300;3013536;-67
2023/03/09 11:24:33;;;;;;;11.70;4.00;;;;;;;15.33;44.59;98125.56;78251;1296;3050921;-70
2023/03/09 11:27:04;;;;;;;9.00;2.90;;;;;;;15.43;44.29;98107.55;79485;1300;3011666;-69
2023/03/09 11:29:55;;;;;;;6.00;2.70;;;;;;;15.28;43.58;98114.16;78245;1299;3050846;-70
2023/03/09 11:32:24;;;;;;;5.20;2.50;;;;;;;15.29;42.67;98105.96;78197;1300;3053721;-71
2023/03/09 11:34:51;;;;;;;4.40;1.80;;;;;;;15.47;41.06;98104.49;79487;1301;3013857;-71
2023/03/09 11:37:29;;;;;;;5.20;1.90;;;;;;;15.51;40.20;98100.79;78420;1300;3052159;-71
2023/03/09 11:40:13;;;;;;;4.30;1.90;;;;;;;15.54;40.13;98101.69;79475;1299;3012162;-70
2023/03/09 11:43:08;;;;;;;5.40;2.20;;;;;;;15.76;40.08;98095.00;78173;1298;3047401;-67
2023/03/09 11:45:41;;;;;;;5.80;2.00;;;;;;;15.71;39.60;98093.42;78175;1298;3054133;-72
2023/03/09 11:48:11;;;;;;;5.40;2.20;;;;;;;15.71;39.26;98091.27;79277;1298;3011577;-72
2023/03/09 11:50:57;;;;;;;8.30;2.50;;;;;;;15.89;39.44;98089.61;78294;1300;3053161;-70
2023/03/09 11:53:34;;;;;;;6.70;2.80;;;;;;;16.01;39.54;98084.64;78444;1301;3054350;-69
2023/03/09 11:56:22;;;;;;;4.70;2.00;;;;;;;16.10;38.72;98076.85;78231;1301;3068825;-72
2023/03/09 11:59:35;;;;;;;4.40;2.00;;;;;;;15.93;38.41;98092.89;78243;1301;3052176;-71
2023/03/09 12:02:12;;;;;;;4.40;2.10;;;;;;;15.76;39.06;98087.05;78067;1306;3058089;-70
2023/03/09 12:04:45;;;;;;;9.80;3.40;;;;;;;15.82;39.13;98088.42;78272;1300;3050075;-68
2023/03/09 12:07:20;;;;;;;5.20;2.10;;;;;;;15.69;38.22;98092.79;79376;1298;3011785;-72
2023/03/09 12:09:56;;;;;;;2.70;1.90;;;;;;;15.80;38.05;98081.36;78248;1300;3050775;-69
2023/03/09 12:12:35;;;;;;;3.80;2.00;;;;;;;16.04;38.04;98069.36;78235;1301;3051840;-69
2023/03/09 12:15:15;;;;;;;4.40;2.50;;;;;;;16.18;38.08;98067.39;78306;1301;3051708;-70
2023/03/09 12:17:51;;;;;;;7.50;2.20;;;;;;;16.14;38.00;98066.20;78234;1298;3069632;-71
2023/03/09 12:20:34;;;;;;;3.90;2.80;;;;;;;16.24;37.79;98069.12;79484;1296;3011773;-71
2023/03/09 12:23:35;;;;;;;5.80;2.70;;;;;;;16.18;39.08;98061.48;78222;1298;3059260;-71
2023/03/09 12:26:12;;;;;;;5.80;2.60;;;;;;;16.02;38.06;98068.86;78257;1298;3050195;-71
2023/03/09 12:28:39;;;;;;;4.60;2.30;;;;;;;15.86;37.63;98063.60;78184;1297;3054354;-69
2023/03/09 12:31:31;;;;;;;7.10;2.40;;;;;;;15.83;37.90;98056.31;79481;1300;3015545;-66
2023/03/09 12:34:04;;;;;;;8.00;2.30;;;;;;;15.93;37.90;98047.18;78282;1301;3052821;-71
2023/03/09 12:36:33;;;;;;;8.10;2.40;;;;;;;16.04;37.38;98056.45;79506;1298;3013182;-72
2023/03/09 12:39:38;;;;;;;5.60;3.30;;;;;;;15.92;37.51;98055.95;78283;1300;3054085;-67
2023/03/09 12:42:06;;;;;;;5.00;2.60;;;;;;;16.01;37.41;98043.49;77919;1303;3056640;-67
2023/03/09 12:44:44;;;;;;;5.90;2.70;;;;;;;15.98;37.47;98051.27;79531;1300;3011871;-71
2023/03/09 12:47:24;;;;;;;3.10;2.00;;;;;;;15.96;37.26;98049.87;78114;1298;3054891;-67
2023/03/09 12:49:53;;;;;;;6.10;2.10;;;;;;;15.90;37.05;98050.48;78153;1298;3050919;-67
2023/03/09 12:52:51;;;;;;;6.70;2.50;;;;;;;15.88;36.98;98044.15;79359;1300;3012971;-67
2023/03/09 12:55:34;;;;;;;8.20;3.20;;;;;;;15.92;36.90;98037.75;78131;1301;3051515;-64
2023/03/09 12:58:21;;;;;;;6.40;2.30;;;;;;;16.05;36.69;98028.66;78059;1304;3068398;-66
2023/03/09 13:01:12;;;;;;;4.20;2.30;;;;;;;16.08;36.81;98024.83;78123;1300;3052180;-67
2023/03/09 13:03:44;;;;;;;5.80;2.90;;;;;;;16.12;36.68;98025.92;78068;1302;3059250;-68
2023/03/09 13:06:52;;;;;;;6.10;2.50;;;;;;;16.17;36.35;98024.38;79255;1297;3013087;-67
2023/03/09 13:09:24;;;;;;;6.00;3.30;;;;;;;16.52;36.02;98018.33;78048;1300;3052717;-69
2023/03/09 13:11:57;;;;;;;8.90;3.40;;;;;;;16.67;35.67;98017.78;79344;1298;3013363;-67
2023/03/09 13:14:29;;;;;;;6.30;2.90;;;;;;;16.70;35.67;98013.74;78053;1301;3053371;-66
2023/03/09 13:16:58;;;;;;;7.70;3.40;;;;;;;16.61;35.84;98019.77;79306;1298;3013787;-67
2023/03/09 13:19:24;;;;;;;7.40;2.60;;;;;;;16.56;35.70;98015.44;79368;1297;3011511;-66
2023/03/09 13:21:52;;;;;;;6.40;3.10;;;;;;;16.64;35.60;98015.23;78068;1301;3058123;-67
2023/03/09 13:24:35;;;;;;;9.70;3.60;;;;;;;16.98;35.50;98017.55;79298;1297;3012873;-66
2023/03/09 13:27:28;;;;;;;7.40;3.20;;;;;;;16.97;35.70;98017.23;78218;1298;3049772;-63
2023/03/09 13:29:57;;;;;;;5.70;2.90;;;;;;;16.69;35.76;98024.08;78176;1300;3052633;-62
2023/03/09 13:32:26;;;;;;;5.30;3.10;;;;;;;16.50;35.96;98017.73;79196;1301;3012918;-63
2023/03/09 13:34:57;;;;;;;7.20;2.80;;;;;;;16.58;36.17;98015.37;78659;1297;3011971;-61
2023/03/09 13:37:28;;;;;;;6.70;3.30;;;;;;;16.76;35.89;98007.92;79187;1301;3011709;-62
2023/03/09 13:40:04;;;;;;;7.10;3.50;;;;;;;17.12;35.81;97998.75;78048;1300;3057491;-61
2023/03/09 13:42:33;;;;;;;8.90;4.00;;;;;;;17.26;35.73;97997.88;77925;1300;3049402;-60
2023/03/09 13:45:00;;;;;;;5.90;3.50;;;;;;;17.36;35.61;97996.44;79270;1298;3013182;-62
2023/03/09 13:47:29;;;;;;;7.10;3.20;;;;;;;17.30;35.04;98006.11;79167;1298;3013017;-61
2023/03/09 13:49:58;;;;;;;6.90;2.80;;;;;;;17.21;34.86;97991.36;77942;1300;3052023;-62
2023/03/09 13:52:26;;;;;;;7.10;2.90;;;;;;;17.17;35.70;97989.88;79209;1297;3012978;-63
2023/03/09 13:54:57;;;;;;;9.80;3.10;;;;;;;17.14;35.98;97985.25;78763;1298;3012054;-61
2023/03/09 13:57:25;;;;;;;9.20;3.90;;;;;;;17.17;35.70;97982.42;79240;1297;3013171;-63
2023/03/09 13:59:56;;;;;;;7.60;3.30;;;;;;;17.25;35.70;97978.14;78055;1300;3026094;-62
2023/03/09 14:02:25;;;;;;;7.40;3.50;;;;;;;17.26;36.01;97976.97;79319;1295;3011680;-60
2023/03/09 14:04:56;;;;;;;6.30;2.70;;;;;;;17.22;36.26;97975.27;78093;1299;3026881;-60
2023/03/09 14:07:25;;;;;;;5.90;3.20;;;;;;;17.16;36.67;97977.04;79325;1295;3011638;-62
2023/03/09 14:09:55;;;;;;;6.20;3.00;;;;;;;16.98;36.53;97978.48;77939;1301;3053889;-62
2023/03/09 14:12:31;;;;;;;8.90;2.80;;;;;;;17.05;36.59;97967.46;79237;1295;3011940;-63
2023/03/09 14:14:59;;;;;;;6.30;2.90;;;;;;;17.14;36.38;97962.27;78004;1298;3052837;-62
2023/03/09 14:17:25;;;;;;;6.10;2.60;;;;;;;17.16;36.41;97965.24;79145;1298;3013677;-61
2023/03/09 14:19:58;;;;;;;9.40;3.20;;;;;;;17.18;36.66;97953.68;78019;1300;3053575;-61
2023/03/09 14:22:28;;;;;;;6.10;3.20;;;;;;;17.32;36.59;97956.67;79343;1296;3011645;-62
2023/03/09 14:24:57;;;;;;;7.10;2.90;;;;;;;17.30;36.38;97950.34;78015;1299;3027646;-62
2023/03/09 14:27:34;;;;;;;9.10;3.90;;;;;;;17.30;36.63;97947.89;79245;1298;3013747;-60
2023/03/09 14:30:43;;;;;;;12.50;4.00;;;;;;;17.22;36.61;97955.33;78055;1297;3052265;-60
2023/03/09 14:33:28;;;;;;;8.90;3.50;;;;;;;17.04;36.94;97951.12;77940;1300;3056446;-61
2023/03/09 14:36:17;;;;;;;9.00;3.20;;;;;;;17.02;37.04;97949.99;77929;1298;3049510;-63
2023/03/09 14:38:58;;;;;;;8.90;3.30;;;;;;;17.06;36.80;97945.29;78006;1300;3053115;-60
2023/03/09 14:41:28;;;;;;;8.70;3.70;;;;;;;17.05;36.87;97940.41;78213;1300;3049570;-67
2023/03/09 14:43:56;;;;;;;11.20;3.50;;;;;;;17.11;36.92;97941.02;79260;1297;3011683;-67
2023/03/09 14:46:26;;;;;;;9.10;4.20;;;;;;;16.99;37.19;97936.70;78058;1301;3027086;-66
2023/03/09 14:48:56;;;;;;;7.20;4.10;;;;;;;16.92;36.86;97935.44;79461;1297;3011601;-65
2023/03/09 14:51:25;;;;;;;11.10;3.90;;;;;;;16.87;37.47;97936.00;78031;1297;3052857;-62
2023/03/09 14:53:54;;;;;;;8.30;3.20;;;;;;;16.86;37.74;97933.78;79290;1295;3013509;-62
2023/03/09 14:56:23;;;;;;;8.80;3.50;;;;;;;16.73;38.38;97933.27;78008;1299;3025788;-62
2023/03/09 14:58:50;;;;;;;6.40;2.60;;;;;;;16.49;39.10;97935.45;79356;1299;3013966;-61
2023/03/09 15:01:22;;;;;;;6.30;3.10;;;;;;;16.48;39.09;97932.14;78086;1298;3054694;-62
2023/03/09 15:03:49;;;;;;;12.80;3.20;;;;;;;16.31;39.87;97930.10;79202;1298;3013304;-64
2023/03/09 15:06:16;;;;;;;8.40;3.20;;;;;;;16.17;40.10;97933.92;79286;1295;3011646;-61
2023/03/09 15:08:49;;;;;;;7.40;3.50;;;;;;;16.18;40.22;97934.36;78112;1301;3056030;-60
2023/03/09 15:11:15;;;;;;;8.30;3.80;;;;;;;16.09;40.70;97931.75;79242;1295;3013269;-62
2023/03/09 15:13:42;;;;;;;7.10;3.40;;;;;;;16.00;40.76;97928.89;79223;1295;3013119;-62
2023/03/09 15:16:11;;;;;;;7.50;3.10;;;;;;;15.95;40.79;97934.36;78023;1301;3027832;-63
2023/03/09 15:18:38;;;;;;;9.10;3.20;;;;;;;15.75;41.21;97931.71;79265;1301;3014156;-64
2023/03/09 15:21:04;;;;;;;8.90;2.60;;;;;;;15.59;41.57;97936.89;79251;1295;3011725;-62
2023/03/09 15:23:33;;;;;;;6.50;3.10;;;;;;;15.38;42.19;97934.87;78071;1300;3057573;-64
2023/03/09 15:26:03;;;;;;;7.60;3.20;;;;;;;15.30;42.55;97933.25;79271;1295;3013707;-63
2023/03/09 15:28:36;;;;;;;7.00;3.10;;;;;;;15.07;43.25;97934.98;78136;1301;3049513;-63